Kirkwood, CA (95646)

11:26 PM PST on February 05, 2016 (GMT -0800)
Sierra-at-Tahoe Resort | | Change Station
CLOSE
Current Station
Personal Weather Station
Location: Twin Bridges, CA
Elevation: 7306 ft
Nearby Weather Stations

Elev 7306 ft 38.80 °N, 120.08 °W | Updated 5 seconds ago

Clear
Clear
29.0 °F
Feels Like 29 °F
N
0.0
Wind Variable Wind from ENE
Gusts 0.0 mph

Today
High -- | Low -- °F
--% Chance of Precip.
Yesterday
High -- | Low -- °F
Precip. -- in
Pressure 30.51 in
Visibility 10.0 miles
Clouds Scattered Clouds 12000 ft
Windchill 29 °F
Dew Point 19 °F
Humidity 67%
Rainfall 0.18 in
Snow Depth Not available.
7:02 AM 5:26 PM
Waning Crescent, 7% visible
METAR KTVL 060653Z AUTO 00000KT 10SM SCT120 M04/M06 A3049 RMK AO2 SLP331 I1000 T10391061
Pressure 30.51 in
Visibility 10.0 miles
Clouds Scattered Clouds 12000 ft
Windchill 29 °F
Dew Point 19 °F
Humidity 67%
Rainfall 0.18 in
Snow Depth Not available.
7:02 AM 5:26 PM
Waning Crescent, 7% visible
METAR KTVL 060653Z AUTO 00000KT 10SM SCT120 M04/M06 A3049 RMK AO2 SLP331 I1000 T10391061

10-Day Weather Forecast

Almanac

Astronomy

Feb. 05, 2016 Rise Set
Actual Time
Civil Twilight
Nautical Twilight
Astronomical Twilight
Moon
Length of Visible Light
Length of Day
Tomorrow will be .
, % of the Moon is Illuminated

Today's Extremes

State Highs State Lows

Community

WunderPhotos

Upload Photos

1,890,933 photos uploaded!

WunderBlog® & News

Nearby

Air Quality

  Air Quality AQ Index Pollutant
Not available.

Snow Depth

Station Depth Elevation

Earthquake Activity

City Distance Mag. Time & Date
Minimum magnitude displayed is 2.5.

Coastal Water Temperatures

Place Temperature

Stations

Nearby Weather Stations

Station Location Temp. Windchill Dew Point Humidity Wind Precip. Elev Updated Type
                   

Watches & Warnings

There are currently no watches in effect.